Time;durP1;ratioP1;P1;durP2;ratioP2;P2;SDS_P1;SDS_P2;PMS_P1;PMS_P2;Temp;Humidity;BMP_temperature;BMP_pressure;BME280_temperature;BME280_humidity;BME280_pressure;Samples;Min_cycle;Max_cycle;Signal;HPM_P1;HPM_P2
2020/12/24 00:01:28;;;;;;;17.83;3.92;;;6.10;99.90;;;;;;5071957;28;20451;-55
2020/12/24 00:03:54;;;;;;;14.57;3.70;;;6.00;99.90;;;;;;5080286;28;20691;-58
2020/12/24 00:06:19;;;;;;;17.33;3.53;;;6.00;99.90;;;;;;5076614;28;20032;-57
2020/12/24 00:08:45;;;;;;;18.35;3.63;;;6.00;99.90;;;;;;5074760;28;20028;-56
2020/12/24 00:11:11;;;;;;;27.38;4.18;;;6.10;99.90;;;;;;5073159;28;20040;-56
2020/12/24 00:13:37;;;;;;;25.90;4.28;;;6.20;99.90;;;;;;5084588;28;20379;-52
2020/12/24 00:16:03;;;;;;;22.70;4.88;;;6.20;99.90;;;;;;5083826;28;20039;-55
2020/12/24 00:18:29;;;;;;;30.23;5.18;;;6.30;99.90;;;;;;5088034;28;20024;-56
2020/12/24 00:20:55;;;;;;;18.42;5.57;;;6.40;99.90;;;;;;5090646;28;20101;-56
2020/12/24 00:23:21;;;;;;;23.55;5.32;;;6.40;99.90;;;;;;5090493;28;20043;-57
2020/12/24 00:25:47;;;;;;;28.88;6.82;;;6.50;99.90;;;;;;5072544;28;20040;-55
2020/12/24 00:28:13;;;;;;;27.92;5.80;;;6.60;99.90;;;;;;5076227;28;20134;-55
2020/12/24 00:30:40;;;;;;;39.58;9.95;;;6.60;99.90;;;;;;5052401;28;20103;-56
2020/12/24 00:33:08;;;;;;;34.08;7.78;;;6.70;99.90;;;;;;5069085;28;20033;-55
2020/12/24 00:35:34;;;;;;;25.52;7.32;;;6.80;99.90;;;;;;5035532;28;20467;-55
2020/12/24 00:38:00;;;;;;;17.30;4.75;;;6.90;99.90;;;;;;5070281;28;20032;-56
2020/12/24 00:40:27;;;;;;;19.48;4.93;;;7.00;99.90;;;;;;5069823;28;20076;-57
2020/12/24 00:42:53;;;;;;;22.23;4.75;;;7.10;99.90;;;;;;5070135;28;20067;-56
2020/12/24 00:45:19;;;;;;;24.35;4.85;;;7.10;99.90;;;;;;5070211;28;20044;-57
2020/12/24 00:47:44;;;;;;;33.03;5.38;;;7.10;99.90;;;;;;5069992;28;20036;-55
2020/12/24 00:50:10;;;;;;;34.20;5.68;;;7.10;99.90;;;;;;5070048;28;20451;-57
2020/12/24 00:52:35;;;;;;;32.13;4.93;;;7.10;99.90;;;;;;5072415;28;20024;-58
2020/12/24 00:55:01;;;;;;;38.75;5.57;;;7.10;99.90;;;;;;5051829;28;20390;-58
2020/12/24 00:57:27;;;;;;;29.23;4.97;;;7.10;99.90;;;;;;5070037;28;20028;-56
2020/12/24 00:59:52;;;;;;;36.25;4.32;;;7.10;99.90;;;;;;5069619;28;20079;-57
2020/12/24 01:02:18;;;;;;;26.95;4.28;;;7.30;99.90;;;;;;5069806;28;20512;-55
2020/12/24 01:04:44;;;;;;;22.23;3.97;;;7.40;99.90;;;;;;5069715;28;20040;-57
2020/12/24 01:07:09;;;;;;;22.58;3.80;;;7.50;99.90;;;;;;5069645;28;20036;-53
2020/12/24 01:09:38;;;;;;;31.70;5.18;;;7.60;99.90;;;;;;5069710;28;20064;-53
2020/12/24 01:12:03;;;;;;;36.13;3.97;;;7.70;99.90;;;;;;5069348;28;20036;-54
2020/12/24 01:14:30;;;;;;;27.92;3.53;;;7.80;99.90;;;;;;5069648;28;20091;-55
2020/12/24 01:16:55;;;;;;;33.15;5.28;;;7.90;99.90;;;;;;5072127;28;20044;-56
2020/12/24 01:19:21;;;;;;;26.65;3.83;;;8.00;99.90;;;;;;5051002;28;20534;-53
2020/12/24 01:21:47;;;;;;;37.38;5.55;;;8.00;99.90;;;;;;5069311;28;20048;-56
2020/12/24 01:24:13;;;;;;;30.08;3.95;;;8.00;99.90;;;;;;5068818;28;20106;-56
2020/12/24 01:26:45;;;;;;;30.25;3.67;;;8.00;99.90;;;;;;5069639;28;20040;-55
2020/12/24 01:29:11;;;;;;;32.47;4.22;;;8.10;99.90;;;;;;5069594;28;20731;-56
2020/12/24 01:31:37;;;;;;;22.73;4.53;;;8.10;99.90;;;;;;5069164;28;20032;-56
2020/12/24 01:34:03;;;;;;;19.60;4.43;;;8.20;99.90;;;;;;5063563;28;20036;-56
2020/12/24 01:36:28;;;;;;;13.70;3.88;;;8.20;99.90;;;;;;5089070;28;20085;-55
2020/12/24 01:38:54;;;;;;;27.50;5.07;;;8.30;99.90;;;;;;5088989;28;20034;-55
2020/12/24 01:41:20;;;;;;;11.48;3.17;;;8.30;99.90;;;;;;5089120;28;20544;-56
2020/12/24 01:43:45;;;;;;;7.13;2.30;;;8.30;99.90;;;;;;5077013;28;20124;-56
2020/12/24 01:46:11;;;;;;;3.22;1.75;;;8.30;99.90;;;;;;5068394;28;20047;-55
2020/12/24 01:48:36;;;;;;;7.75;1.30;;;8.30;99.90;;;;;;5068503;28;20066;-55
2020/12/24 01:51:02;;;;;;;3.20;0.90;;;8.20;99.90;;;;;;5068772;28;20043;-55
2020/12/24 01:53:28;;;;;;;1.30;1.00;;;8.20;99.90;;;;;;5068603;28;20028;-53
2020/12/24 01:55:56;;;;;;;5.68;1.63;;;8.10;99.90;;;;;;5068774;28;20031;-57
2020/12/24 01:58:22;;;;;;;3.05;0.80;;;8.10;99.90;;;;;;5050544;28;20032;-56
2020/12/24 02:00:48;;;;;;;3.35;0.70;;;8.10;99.90;;;;;;5068559;28;20040;-56
2020/12/24 02:03:15;;;;;;;3.65;0.68;;;8.10;99.90;;;;;;5068532;28;20036;-54
2020/12/24 02:05:41;;;;;;;5.13;0.93;;;8.10;99.90;;;;;;5068504;28;20025;-53
2020/12/24 02:08:07;;;;;;;4.30;1.52;;;8.00;99.90;;;;;;5068206;28;20490;-55
2020/12/24 02:10:32;;;;;;;4.75;0.73;;;8.00;99.90;;;;;;5068179;28;20805;-54
2020/12/24 02:12:58;;;;;;;1.40;0.70;;;7.90;99.90;;;;;;5068544;28;20153;-53
2020/12/24 02:15:24;;;;;;;1.85;0.70;;;7.90;99.90;;;;;;5068592;28;20498;-54
2020/12/24 02:17:49;;;;;;;1.63;0.60;;;7.70;99.90;;;;;;5068067;28;20097;-56
2020/12/24 02:20:15;;;;;;;1.13;0.70;;;7.70;99.90;;;;;;5068306;28;20147;-54
2020/12/24 02:22:41;;;;;;;2.17;0.80;;;7.70;99.90;;;;;;5068117;28;20636;-55
2020/12/24 02:25:06;;;;;;;3.33;0.93;;;7.60;99.90;;;;;;5068887;28;20095;-54
2020/12/24 02:27:32;;;;;;;7.50;1.17;;;7.60;99.90;;;;;;5068119;28;20032;-53
2020/12/24 02:30:01;;;;;;;3.97;0.80;;;7.60;99.90;;;;;;5068586;28;20042;-55
2020/12/24 02:32:28;;;;;;;2.53;0.65;;;7.50;99.90;;;;;;5071534;28;20033;-56
2020/12/24 02:34:55;;;;;;;4.55;0.90;;;7.50;99.90;;;;;;5068739;28;20111;-53
2020/12/24 02:37:24;;;;;;;3.28;0.93;;;7.40;99.90;;;;;;5068181;28;20572;-53
2020/12/24 02:39:51;;;;;;;1.52;0.60;;;7.40;99.90;;;;;;5068658;28;20044;-53
2020/12/24 02:42:17;;;;;;;5.20;0.80;;;7.40;99.90;;;;;;5068659;28;20789;-55
2020/12/24 02:44:43;;;;;;;2.40;0.60;;;7.30;99.90;;;;;;5068822;28;20039;-56
2020/12/24 02:47:10;;;;;;;1.48;0.50;;;7.30;99.90;;;;;;5082871;28;20028;-53
2020/12/24 02:49:35;;;;;;;0.77;0.50;;;7.30;99.90;;;;;;5088547;28;20044;-52
2020/12/24 02:52:01;;;;;;;3.13;0.70;;;7.20;99.90;;;;;;5089566;28;20466;-53
2020/12/24 02:54:27;;;;;;;2.35;0.50;;;7.20;99.90;;;;;;5089708;28;20030;-54
2020/12/24 02:56:52;;;;;;;2.45;0.52;;;7.10;99.90;;;;;;5092431;28;20039;-53
2020/12/24 02:59:18;;;;;;;1.27;0.80;;;7.10;99.90;;;;;;5093355;28;20470;-52
2020/12/24 03:01:44;;;;;;;2.00;0.60;;;7.10;99.90;;;;;;5093029;28;20055;-54
2020/12/24 03:04:09;;;;;;;1.08;0.60;;;7.00;99.90;;;;;;5093902;28;20028;-53
2020/12/24 03:06:35;;;;;;;2.80;0.63;;;7.00;99.90;;;;;;5093209;28;20032;-53
2020/12/24 03:09:00;;;;;;;0.40;0.40;;;7.00;99.90;;;;;;5093494;28;20031;-55
2020/12/24 03:11:26;;;;;;;2.40;0.50;;;7.00;99.90;;;;;;5093834;28;20500;-54
2020/12/24 03:13:52;;;;;;;1.73;0.57;;;7.00;99.90;;;;;;5093859;28;20378;-52
2020/12/24 03:16:17;;;;;;;1.95;0.60;;;7.00;99.90;;;;;;5089967;28;20325;-52
2020/12/24 03:18:43;;;;;;;1.05;0.68;;;7.00;99.90;;;;;;5093103;28;20064;-51
2020/12/24 03:21:09;;;;;;;5.95;0.60;;;6.90;99.90;;;;;;5093258;28;20140;-50
2020/12/24 03:23:34;;;;;;;2.40;0.73;;;7.00;99.90;;;;;;5092987;28;20803;-50
2020/12/24 03:26:00;;;;;;;5.28;0.50;;;7.00;99.90;;;;;;5093431;28;20738;-51
2020/12/24 03:28:25;;;;;;;5.47;0.75;;;7.00;99.90;;;;;;5093318;28;20032;-53
2020/12/24 03:30:51;;;;;;;5.72;0.82;;;7.00;99.90;;;;;;5074881;28;20671;-53
2020/12/24 03:33:16;;;;;;;1.13;0.40;;;7.00;99.90;;;;;;5092977;28;20053;-53
2020/12/24 03:35:42;;;;;;;0.70;0.68;;;7.00;99.90;;;;;;5092861;28;20394;-52
2020/12/24 03:38:08;;;;;;;3.42;0.60;;;7.00;99.90;;;;;;5093026;28;20028;-50
2020/12/24 03:40:33;;;;;;;0.93;0.50;;;7.00;99.90;;;;;;5092863;28;20047;-51
2020/12/24 03:42:59;;;;;;;0.63;0.50;;;7.10;99.90;;;;;;5092972;28;20051;-52
2020/12/24 03:45:25;;;;;;;4.38;0.60;;;7.00;99.90;;;;;;5092589;28;20035;-53
2020/12/24 03:47:50;;;;;;;2.35;0.70;;;7.10;99.90;;;;;;5092369;28;20208;-54
2020/12/24 03:50:16;;;;;;;1.75;0.70;;;7.10;99.90;;;;;;5093225;28;20035;-52
2020/12/24 03:52:42;;;;;;;1.80;0.70;;;7.10;99.90;;;;;;5092947;28;20040;-52
2020/12/24 03:55:07;;;;;;;1.70;0.70;;;7.10;99.90;;;;;;5092719;28;20107;-52
2020/12/24 03:57:33;;;;;;;4.57;0.68;;;7.10;99.90;;;;;;5092390;28;20031;-52
2020/12/24 03:59:58;;;;;;;3.15;0.63;;;7.10;99.90;;;;;;5092151;28;20367;-50
2020/12/24 04:02:24;;;;;;;1.83;0.43;;;7.10;99.90;;;;;;5092268;28;20039;-50
2020/12/24 04:04:49;;;;;;;2.55;0.70;;;7.00;99.90;;;;;;5091778;28;20032;-51
2020/12/24 04:07:18;;;;;;;3.65;0.60;;;7.00;99.90;;;;;;5090840;28;20539;-51
2020/12/24 04:09:44;;;;;;;4.68;0.63;;;7.00;99.90;;;;;;5092157;28;20028;-50
2020/12/24 04:12:09;;;;;;;4.30;0.60;;;6.90;99.90;;;;;;5092137;28;20035;-52
2020/12/24 04:14:37;;;;;;;4.57;0.73;;;7.00;99.90;;;;;;5092387;28;20359;-52
2020/12/24 04:17:02;;;;;;;5.93;0.77;;;7.00;99.90;;;;;;5092363;28;20028;-52
2020/12/24 04:19:28;;;;;;;1.65;0.60;;;7.00;99.90;;;;;;5091685;28;20024;-50
2020/12/24 04:21:54;;;;;;;2.90;0.68;;;7.00;99.90;;;;;;5091937;28;20040;-49
2020/12/24 04:24:19;;;;;;;2.90;0.70;;;7.00;99.90;;;;;;5091928;28;20731;-51
2020/12/24 04:26:45;;;;;;;1.65;0.65;;;7.00;99.90;;;;;;5091760;28;20455;-54
2020/12/24 04:29:10;;;;;;;0.47;0.43;;;7.00;99.90;;;;;;5091860;28;20051;-52
2020/12/24 04:31:43;;;;;;;6.80;0.90;;;7.00;99.90;;;;;;5092075;28;20032;-54
2020/12/24 04:34:10;;;;;;;2.08;0.77;;;7.00;99.90;;;;;;5091869;28;20417;-55
2020/12/24 04:36:37;;;;;;;5.60;0.90;;;7.00;99.90;;;;;;5092143;28;20721;-53
2020/12/24 04:39:04;;;;;;;10.10;1.05;;;7.00;99.90;;;;;;5091537;28;20032;-51
2020/12/24 04:41:30;;;;;;;7.95;1.35;;;7.00;99.90;;;;;;5091739;28;20118;-54
2020/12/24 04:43:57;;;;;;;1.05;0.60;;;6.90;99.90;;;;;;5091572;28;20157;-54
2020/12/24 04:46:27;;;;;;;4.25;0.98;;;7.00;99.90;;;;;;5091993;28;20036;-52
2020/12/24 04:48:53;;;;;;;3.40;0.80;;;7.00;99.90;;;;;;5091322;28;20028;-52
2020/12/24 04:51:22;;;;;;;3.90;1.05;;;7.00;99.90;;;;;;5073466;28;20032;-52
2020/12/24 04:53:48;;;;;;;3.05;1.30;;;7.00;99.90;;;;;;5071437;28;20115;-53
2020/12/24 04:56:13;;;;;;;9.15;1.30;;;7.00;99.90;;;;;;5071329;28;20134;-52
2020/12/24 04:58:43;;;;;;;3.50;0.90;;;6.90;99.90;;;;;;5071218;28;20028;-51
2020/12/24 05:01:14;;;;;;;4.68;1.15;;;7.00;99.90;;;;;;5070902;28;20486;-52
2020/12/24 05:03:40;;;;;;;4.22;1.17;;;7.00;99.90;;;;;;5077270;28;20051;-52
2020/12/24 05:06:06;;;;;;;5.88;0.70;;;7.00;99.90;;;;;;5091244;28;20058;-53
2020/12/24 05:08:31;;;;;;;8.43;0.93;;;7.00;99.90;;;;;;5091110;28;20036;-52
2020/12/24 05:11:04;;;;;;;4.97;1.00;;;7.10;99.90;;;;;;5072730;28;20043;-53
2020/12/24 05:13:30;;;;;;;9.52;1.02;;;7.00;99.90;;;;;;5091230;28;20024;-52
2020/12/24 05:15:56;;;;;;;1.48;0.68;;;7.00;99.90;;;;;;5091127;28;20466;-50
2020/12/24 05:18:22;;;;;;;12.93;1.48;;;7.00;99.90;;;;;;5090497;28;20040;-52
2020/12/24 05:20:48;;;;;;;5.38;1.00;;;7.10;99.90;;;;;;5090581;28;20035;-50
2020/12/24 05:23:16;;;;;;;3.15;1.13;;;7.10;99.90;;;;;;5085380;28;20040;-50
2020/12/24 05:25:42;;;;;;;6.50;0.95;;;7.00;99.90;;;;;;5070818;28;20032;-49
2020/12/24 05:28:18;;;;;;;5.68;0.80;;;7.10;99.90;;;;;;5070383;28;20044;-52
2020/12/24 05:30:44;;;;;;;3.85;1.27;;;7.10;99.90;;;;;;5070542;28;20097;-51
2020/12/24 05:33:10;;;;;;;4.97;0.70;;;7.10;99.90;;;;;;5070261;28;20033;-50
2020/12/24 05:35:35;;;;;;;11.98;1.40;;;7.10;99.90;;;;;;5070358;28;20028;-50
2020/12/24 05:38:01;;;;;;;3.42;0.80;;;7.10;99.90;;;;;;5070690;28;20040;-52
2020/12/24 05:40:31;;;;;;;3.10;1.00;;;7.10;99.90;;;;;;5070038;28;20044;-53
2020/12/24 05:42:58;;;;;;;4.60;1.10;;;7.10;99.90;;;;;;5069932;28;20036;-53
2020/12/24 05:45:27;;;;;;;4.57;1.35;;;7.10;99.90;;;;;;5070058;28;20025;-52
2020/12/24 05:48:08;;;;;;;9.05;1.25;;;7.20;99.90;;;;;;5067110;28;20043;-54
2020/12/24 05:50:34;;;;;;;6.40;0.90;;;7.20;99.90;;;;;;5069593;28;20068;-49
2020/12/24 05:53:19;;;;;;;3.70;0.93;;;7.20;99.90;;;;;;5069218;28;20414;-52
2020/12/24 05:55:45;;;;;;;5.65;1.10;;;7.20;99.90;;;;;;5069606;28;20040;-52
2020/12/24 05:58:10;;;;;;;2.00;0.73;;;7.30;99.90;;;;;;5069560;28;20078;-50
2020/12/24 06:00:41;;;;;;;6.18;0.85;;;7.30;99.90;;;;;;5069364;28;20033;-48
2020/12/24 06:03:13;;;;;;;4.38;1.08;;;7.30;99.90;;;;;;5072578;28;20024;-49
2020/12/24 06:05:54;;;;;;;10.27;1.83;;;7.30;99.90;;;;;;5088941;28;20028;-48
2020/12/24 06:08:26;;;;;;;3.88;0.93;;;7.30;99.90;;;;;;5076276;28;20067;-51
2020/12/24 06:11:05;;;;;;;4.95;0.98;;;7.30;99.90;;;;;;5068474;28;20040;-48
2020/12/24 06:13:38;;;;;;;6.07;0.70;;;7.40;99.90;;;;;;5068140;28;20028;-53
2020/12/24 06:16:08;;;;;;;5.72;0.98;;;7.30;99.90;;;;;;5068115;28;20071;-50
2020/12/24 06:18:36;;;;;;;4.82;1.10;;;7.30;99.90;;;;;;5068494;28;20033;-51
2020/12/24 06:21:02;;;;;;;3.20;1.15;;;7.40;99.90;;;;;;5068530;28;20052;-50
2020/12/24 06:23:34;;;;;;;4.60;0.77;;;7.30;99.90;;;;;;5063059;28;20056;-51
2020/12/24 06:26:04;;;;;;;3.80;1.08;;;7.40;99.90;;;;;;5083428;28;20042;-52
2020/12/24 06:28:33;;;;;;;6.57;1.48;;;7.40;99.90;;;;;;5084916;28;20040;-51
2020/12/24 06:31:01;;;;;;;5.65;1.17;;;7.30;99.90;;;;;;5087338;28;20522;-51
2020/12/24 06:33:29;;;;;;;5.80;1.20;;;7.40;99.90;;;;;;5080674;28;20085;-50
2020/12/24 06:35:55;;;;;;;7.78;1.13;;;7.40;99.90;;;;;;5087647;28;20020;-53
2020/12/24 06:38:45;;;;;;;7.68;1.30;;;7.30;99.90;;;;;;5086589;28;20375;-52
2020/12/24 06:41:22;;;;;;;9.23;1.83;;;7.30;99.90;;;;;;5087430;28;20031;-52
2020/12/24 06:43:50;;;;;;;5.95;1.08;;;7.30;99.90;;;;;;5085163;28;20516;-52
2020/12/24 06:46:16;;;;;;;9.32;1.38;;;7.30;99.90;;;;;;5084154;28;20032;-51
2020/12/24 06:49:05;;;;;;;10.10;1.50;;;7.30;99.90;;;;;;5083995;28;20034;-52
2020/12/24 06:51:50;;;;;;;13.60;1.80;;;7.20;99.90;;;;;;5085862;28;20032;-52
2020/12/24 06:54:27;;;;;;;14.52;1.77;;;7.20;99.90;;;;;;5085761;28;20020;-54
2020/12/24 06:57:18;;;;;;;12.77;1.67;;;7.20;99.90;;;;;;5067453;28;20898;-53
2020/12/24 06:59:44;;;;;;;13.30;2.17;;;7.20;99.90;;;;;;5082874;28;20028;-51
2020/12/24 07:02:09;;;;;;;11.23;1.75;;;7.20;99.90;;;;;;5079215;28;20047;-51
2020/12/24 07:04:36;;;;;;;12.13;1.67;;;7.20;99.90;;;;;;5081934;28;20448;-51
2020/12/24 07:07:02;;;;;;;22.10;1.75;;;7.20;99.90;;;;;;5079960;28;20043;-52
2020/12/24 07:09:31;;;;;;;9.80;1.90;;;7.30;99.90;;;;;;5085272;28;20425;-51
2020/12/24 07:11:57;;;;;;;12.90;2.70;;;7.20;99.90;;;;;;5084249;28;20028;-51
2020/12/24 07:14:35;;;;;;;16.30;2.53;;;7.30;99.90;;;;;;5079813;28;20048;-51
2020/12/24 07:17:14;;;;;;;13.55;2.53;;;7.20;99.90;;;;;;5079944;28;20032;-51
2020/12/24 07:19:42;;;;;;;12.38;2.13;;;7.20;99.90;;;;;;5083710;28;20067;-52
2020/12/24 07:22:13;;;;;;;13.10;2.40;;;7.20;99.90;;;;;;5082995;28;20032;-51
2020/12/24 07:24:40;;;;;;;19.60;2.38;;;7.20;99.90;;;;;;5083961;28;20490;-51
2020/12/24 07:27:06;;;;;;;17.10;2.22;;;7.20;99.90;;;;;;5085995;28;20532;-50
2020/12/24 07:29:33;;;;;;;15.38;3.13;;;7.20;99.90;;;;;;5083351;28;20039;-49
2020/12/24 07:32:05;;;;;;;10.82;2.25;;;7.20;99.90;;;;;;5085129;28;20061;-53
2020/12/24 07:34:34;;;;;;;21.10;2.58;;;7.20;99.90;;;;;;5077113;28;20549;-51
2020/12/24 07:36:59;;;;;;;17.13;2.40;;;7.20;99.90;;;;;;5086434;28;20055;-50
2020/12/24 07:39:25;;;;;;;16.27;1.88;;;7.20;99.90;;;;;;5085988;28;20094;-53
2020/12/24 07:41:52;;;;;;;24.80;4.03;;;7.20;99.90;;;;;;5087832;28;20512;-53
2020/12/24 07:44:21;;;;;;;12.90;2.40;;;7.20;99.90;;;;;;5079780;28;20063;-52
2020/12/24 07:46:50;;;;;;;20.67;3.53;;;7.10;99.90;;;;;;5074325;28;20036;-51
2020/12/24 07:49:16;;;;;;;10.60;2.15;;;7.00;99.90;;;;;;5081328;28;20062;-50
2020/12/24 07:51:42;;;;;;;15.90;2.38;;;7.00;99.90;;;;;;5084765;28;20060;-49
2020/12/24 07:54:12;;;;;;;18.40;2.80;;;6.90;99.90;;;;;;5085883;28;20032;-51
2020/12/24 07:56:44;;;;;;;6.22;1.80;;;6.90;99.90;;;;;;5072800;28;20636;-52
2020/12/24 07:59:10;;;;;;;12.20;2.10;;;6.90;99.90;;;;;;5087054;28;20036;-49
2020/12/24 08:01:36;;;;;;;27.08;2.50;;;6.90;99.90;;;;;;5090600;28;20051;-51
2020/12/24 08:04:04;;;;;;;9.60;2.42;;;6.90;99.90;;;;;;5078682;28;20032;-52
2020/12/24 08:06:34;;;;;;;25.92;3.60;;;6.90;99.90;;;;;;5081788;28;20507;-50
2020/12/24 08:09:17;;;;;;;12.80;2.53;;;6.90;99.90;;;;;;5087157;28;20444;-50
2020/12/24 08:11:55;;;;;;;20.58;2.92;;;6.70;99.90;;;;;;5087115;28;20063;-49
2020/12/24 08:14:25;;;;;;;9.85;1.90;;;6.60;99.90;;;;;;5081922;28;20032;-49
2020/12/24 08:16:53;;;;;;;12.70;2.05;;;6.50;99.90;;;;;;5072242;28;20084;-50
2020/12/24 08:19:33;;;;;;;8.82;2.17;;;6.40;99.90;;;;;;5054029;28;20024;-50
2020/12/24 08:22:14;;;;;;;15.23;2.63;;;6.20;99.90;;;;;;5073889;28;20076;-50
2020/12/24 08:24:41;;;;;;;18.98;2.47;;;6.20;99.90;;;;;;5072851;28;20558;-49
2020/12/24 08:27:07;;;;;;;11.45;1.95;;;6.20;99.90;;;;;;5075993;28;20048;-49
2020/12/24 08:29:34;;;;;;;17.70;2.95;;;6.10;99.90;;;;;;5073675;28;20099;-51
2020/12/24 08:32:02;;;;;;;17.02;2.38;;;6.10;99.90;;;;;;5069770;28;20024;-49
2020/12/24 08:34:29;;;;;;;12.50;2.92;;;6.10;99.90;;;;;;5072745;28;20691;-48
2020/12/24 08:36:56;;;;;;;18.58;2.35;;;6.00;99.90;;;;;;5072715;28;20666;-50
2020/12/24 08:39:22;;;;;;;13.63;1.90;;;6.00;99.90;;;;;;5078352;28;20059;-51
2020/12/24 08:41:55;;;;;;;18.58;2.60;;;6.00;99.90;;;;;;5087496;28;20564;-49
2020/12/24 08:44:21;;;;;;;15.43;2.30;;;5.90;99.90;;;;;;5070941;28;20030;-49
2020/12/24 08:47:00;;;;;;;11.95;2.28;;;5.90;99.90;;;;;;5087705;28;20756;-50
2020/12/24 08:49:26;;;;;;;12.07;1.83;;;5.90;99.90;;;;;;5078413;28;20041;-50
2020/12/24 08:52:22;;;;;;;15.48;2.38;;;5.90;99.90;;;;;;5088156;28;20032;-50
2020/12/24 08:54:58;;;;;;;18.35;2.30;;;5.80;99.90;;;;;;5088085;28;20028;-49
2020/12/24 08:57:24;;;;;;;13.07;1.90;;;5.80;99.90;;;;;;5083050;28;21863;-49
2020/12/24 08:59:54;;;;;;;12.98;2.08;;;5.80;99.90;;;;;;5076455;28;20040;-49
2020/12/24 09:02:29;;;;;;;11.43;2.05;;;5.70;99.90;;;;;;5088195;28;20074;-49
2020/12/24 09:04:56;;;;;;;8.25;1.95;;;5.70;99.90;;;;;;5082283;28;20556;-50
2020/12/24 09:07:35;;;;;;;11.57;2.63;;;5.70;99.90;;;;;;5086700;28;20028;-50
2020/12/24 09:10:04;;;;;;;15.05;2.05;;;5.60;99.90;;;;;;5085441;28;20031;-49
2020/12/24 09:12:30;;;;;;;3.20;0.93;;;5.70;99.90;;;;;;5084366;28;20044;-50
2020/12/24 09:15:05;;;;;;;6.13;1.80;;;5.70;99.90;;;;;;5080551;28;20032;-50
2020/12/24 09:17:31;;;;;;;12.88;2.53;;;5.60;99.90;;;;;;5084225;28;20028;-49
2020/12/24 09:20:08;;;;;;;19.80;1.98;;;5.60;99.90;;;;;;5068205;28;20045;-49
2020/12/24 09:22:35;;;;;;;10.63;2.08;;;5.70;99.90;;;;;;5081702;28;20479;-49
2020/12/24 09:25:01;;;;;;;17.88;2.53;;;5.70;99.90;;;;;;5068861;28;20559;-48
2020/12/24 09:27:27;;;;;;;12.38;2.00;;;5.60;99.90;;;;;;5080116;28;20039;-51
2020/12/24 09:29:53;;;;;;;16.10;2.50;;;5.70;99.90;;;;;;5087908;28;20043;-52
2020/12/24 09:32:18;;;;;;;16.52;2.10;;;5.70;99.90;;;;;;5081200;28;20032;-49
2020/12/24 09:34:44;;;;;;;9.20;1.65;;;5.70;99.90;;;;;;5079380;28;20037;-49
2020/12/24 09:37:11;;;;;;;16.60;2.03;;;5.70;99.90;;;;;;5087147;28;20031;-50
2020/12/24 09:39:36;;;;;;;15.90;2.40;;;5.80;99.90;;;;;;5088534;28;20135;-50
2020/12/24 09:42:02;;;;;;;13.88;2.50;;;5.80;99.90;;;;;;5087698;28;20132;-49
2020/12/24 09:44:28;;;;;;;15.73;2.50;;;5.80;99.90;;;;;;5085941;28;20032;-51
2020/12/24 09:46:54;;;;;;;13.52;2.42;;;5.90;99.90;;;;;;5067039;28;20031;-48
2020/12/24 09:49:19;;;;;;;13.93;2.80;;;5.90;99.90;;;;;;5083181;28;20032;-50
2020/12/24 09:51:47;;;;;;;8.73;1.98;;;5.90;99.90;;;;;;5074163;28;20028;-51
2020/12/24 09:54:12;;;;;;;14.43;3.22;;;6.00;99.90;;;;;;5060041;28;20029;-48
2020/12/24 09:56:38;;;;;;;15.98;2.50;;;6.10;99.90;;;;;;5087038;28;20359;-50
2020/12/24 09:59:04;;;;;;;7.32;2.15;;;6.10;99.90;;;;;;5084557;28;20427;-49
2020/12/24 10:01:30;;;;;;;8.88;2.38;;;6.10;99.90;;;;;;5083552;28;20054;-51
2020/12/24 10:03:56;;;;;;;9.30;2.00;;;6.10;99.90;;;;;;5068929;28;20536;-50
2020/12/24 10:06:23;;;;;;;8.68;1.90;;;6.20;99.90;;;;;;5070200;28;20028;-48
2020/12/24 10:08:49;;;;;;;9.35;2.22;;;6.10;99.90;;;;;;5069814;28;20020;-47
2020/12/24 10:11:15;;;;;;;12.57;2.42;;;6.10;99.90;;;;;;5065744;28;20036;-48
2020/12/24 10:13:41;;;;;;;6.35;1.67;;;6.10;99.90;;;;;;5067077;28;20399;-49
2020/12/24 10:16:07;;;;;;;7.65;2.13;;;6.30;99.90;;;;;;5068474;28;20024;-49
2020/12/24 10:18:33;;;;;;;15.23;2.38;;;6.40;99.90;;;;;;5073375;28;20470;-49
2020/12/24 10:20:59;;;;;;;9.15;1.83;;;6.50;99.90;;;;;;5070019;28;20445;-48
2020/12/24 10:23:25;;;;;;;10.00;2.40;;;6.60;99.90;;;;;;5067750;28;20049;-49
2020/12/24 10:25:51;;;;;;;11.32;2.10;;;6.50;99.90;;;;;;5068849;28;20045;-48
2020/12/24 10:28:17;;;;;;;14.38;2.30;;;6.40;99.90;;;;;;5087458;28;20078;-49
2020/12/24 10:30:43;;;;;;;9.35;1.98;;;6.30;99.90;;;;;;5087582;28;20040;-50
2020/12/24 10:33:09;;;;;;;16.17;1.92;;;6.20;99.90;;;;;;5087224;28;20071;-50
2020/12/24 10:35:36;;;;;;;14.00;2.35;;;6.20;99.90;;;;;;5078033;28;20694;-49
2020/12/24 10:38:05;;;;;;;11.57;2.30;;;6.20;99.90;;;;;;5067141;28;20033;-47
2020/12/24 10:40:30;;;;;;;11.13;2.25;;;6.20;99.90;;;;;;5048848;28;20032;-47
2020/12/24 10:42:57;;;;;;;9.90;2.28;;;6.30;99.90;;;;;;5067215;28;20141;-47
2020/12/24 10:45:25;;;;;;;18.20;2.50;;;6.40;99.90;;;;;;5067829;28;20547;-48
2020/12/24 10:47:51;;;;;;;14.13;2.05;;;6.50;99.90;;;;;;5067745;28;20082;-49
2020/12/24 10:50:16;;;;;;;7.32;2.15;;;6.50;99.90;;;;;;5067886;28;20457;-48
2020/12/24 10:52:43;;;;;;;10.23;1.80;;;6.50;99.90;;;;;;5069969;28;20037;-47
2020/12/24 10:55:09;;;;;;;17.65;2.47;;;6.40;99.90;;;;;;5067775;28;20067;-47
2020/12/24 10:57:34;;;;;;;17.08;2.40;;;6.20;99.90;;;;;;5067448;28;20036;-48
2020/12/24 11:00:00;;;;;;;7.15;2.10;;;6.20;99.90;;;;;;5067475;28;20410;-49
2020/12/24 11:02:26;;;;;;;10.38;2.08;;;6.30;99.90;;;;;;5067667;28;20032;-47
2020/12/24 11:04:51;;;;;;;11.43;2.13;;;6.40;99.90;;;;;;5049581;28;20036;-47
2020/12/24 11:07:17;;;;;;;8.52;1.83;;;6.40;99.90;;;;;;5077199;28;20072;-48
2020/12/24 11:09:43;;;;;;;10.32;2.47;;;6.30;99.90;;;;;;5087242;28;20518;-50
2020/12/24 11:12:08;;;;;;;11.10;2.33;;;6.30;99.90;;;;;;5068983;28;20479;-48
2020/12/24 11:14:34;;;;;;;9.07;2.25;;;6.20;99.90;;;;;;5068118;28;20021;-47
2020/12/24 11:17:00;;;;;;;6.50;2.00;;;6.20;99.90;;;;;;5069317;28;20075;-47
2020/12/24 11:19:26;;;;;;;4.57;1.85;;;6.20;99.90;;;;;;5071672;28;20101;-49
2020/12/24 11:21:52;;;;;;;6.80;1.80;;;6.20;99.90;;;;;;5073603;28;20868;-49
2020/12/24 11:24:18;;;;;;;16.38;1.70;;;6.20;99.90;;;;;;5070574;28;20067;-47
2020/12/24 11:26:44;;;;;;;2.22;1.20;;;6.20;99.90;;;;;;5071015;28;20028;-49
2020/12/24 11:29:10;;;;;;;8.88;1.70;;;6.20;99.90;;;;;;5050896;28;20451;-49
2020/12/24 11:31:37;;;;;;;16.58;2.00;;;6.20;99.90;;;;;;5077361;28;20076;-48
2020/12/24 11:34:05;;;;;;;15.75;2.13;;;6.20;99.90;;;;;;5075998;28;20043;-47
2020/12/24 11:36:31;;;;;;;19.02;1.98;;;6.20;99.90;;;;;;5075462;28;20048;-52
2020/12/24 11:38:59;;;;;;;6.00;1.73;;;6.20;99.90;;;;;;5069366;28;20028;-49
2020/12/24 11:41:26;;;;;;;9.55;2.45;;;6.20;99.90;;;;;;5069510;28;20127;-50
2020/12/24 11:43:54;;;;;;;6.82;1.80;;;6.30;99.90;;;;;;5068920;28;20519;-48
2020/12/24 11:46:21;;;;;;;9.68;1.92;;;6.40;99.90;;;;;;5069486;28;20032;-51
2020/12/24 11:48:47;;;;;;;11.98;2.22;;;6.30;99.90;;;;;;5070304;28;20032;-55
2020/12/24 11:51:14;;;;;;;4.20;1.40;;;6.30;99.90;;;;;;5070347;28;20058;-54
2020/12/24 11:53:40;;;;;;;17.38;1.92;;;6.30;99.90;;;;;;5070691;28;20060;-56
2020/12/24 11:56:14;;;;;;;8.70;2.22;;;6.50;99.90;;;;;;5070060;28;20063;-54
2020/12/24 11:58:41;;;;;;;11.00;1.98;;;6.60;99.90;;;;;;5070243;28;20034;-55
2020/12/24 12:01:07;;;;;;;10.32;1.70;;;6.70;99.90;;;;;;5070015;28;20041;-54
